Old Hickory, Tennessee
Current Conditions -  °F | °C
As of 2:36 AM on Sunday 23 Nov 2014 (Local Time) from KBNA Reporting Station
Broken Clouds Broken Clouds  
Wind Chill: 12°   Ceiling: 3900
Heat Index: 12°   Visibility: 10mi
Dew Point:   Wind: 9mph
Humidity: 54%   Direction: 150°SSE
Pressure: 30"   Gusts: NA
Location:  36.26°N, 86.65°W
Report Text: KBNA 230836Z 15008KT 10SM SCT027 BKN039 BKN055 12/03 A3000 RMK AO2
Loading
Personal Weather Stations






























Interactive Weather Map New forecast layout! Learn more

10-Day Weather Forecast

Advertisements
Track Severe Weather on mobile